עמוד ראשי
METAR-TAF:

METAR-TAF

שדות תעופה :

נמל התעופה פוטונה פוינט ואל

Futuna, צרפת

קו רוחב: 14-19S, קו אורך: 178-07W, גובה: 6מטר

METAR: חסר

זמן: 23:14 (11:14 UTC)

תחזית

הדו"ח נערך לפני 6 שעות ו 14דקות, בשעה 05:00 UTC
תחזית בתוקף מ 15 ב 06 UTC עד 16 ב 06 UTC
רוח 12קשר מכיוון מזרח/דרום-מזרח
ראות 10 קילומטר או יותר
עננים פזורים בגובה 2000רגל
זמנית מ -
15 ב 06 UTC עד 16 ב 06 UTC
ראות: 4500מטר
עננים בינוניים בגובה 1400רגל
עננים פזורים בגובה 2000רגל , קומולוס מיגדלי.
ממטרי גשם,

TAF: NLWF 150500Z 1506/1606 12012KT 9999 SCT020 TEMPO 1506/1606 4500 SHRA BKN014 SCT020TCU

תצפיות ותחזיות מזג אוויר לגבי יותר מ- 4,000 שדות תעופה ברחבי העולם. דוחות METAR ו- TAF.

התחנות הזמינות מסומנות בנקודות צהובות ואדומות על גבי המפה.

העבר את העכבר לנקודה הצבעונית על מנת לראות את שם התחנה.

לאחר מכן, לחץ כדי לראות את תוכן ואת תחזיות מזג האוויר.

כדי לשנות את המפה: לחץ על הכפתורים הירוקים עם הפלוס השחור כדי להתקרב; על הכפתור הירוק עם המקף כדי להתרחק; או בחיצים הירוקים למפות סמוכות.


METAR-TAF: